createdAt,value
2023-05-22T00:00:25.371Z,10.50
2023-05-22T00:02:58.120Z,10.50
2023-05-22T00:05:34.483Z,10.63
2023-05-22T00:08:02.234Z,9.93
2023-05-22T00:10:31.082Z,10.93
2023-05-22T00:13:00.608Z,10.00
2023-05-22T00:15:34.110Z,10.43
2023-05-22T00:18:04.185Z,9.93
2023-05-22T00:20:32.301Z,11.17
2023-05-22T00:23:01.288Z,9.70
2023-05-22T00:25:39.285Z,10.90
2023-05-22T00:28:08.206Z,11.33
2023-05-22T00:30:38.055Z,10.60
2023-05-22T00:33:11.503Z,10.80
2023-05-22T00:35:39.468Z,10.37
2023-05-22T00:38:07.328Z,11.30
2023-05-22T00:40:35.152Z,10.70
2023-05-22T00:43:10.008Z,11.80
2023-05-22T00:45:40.935Z,10.70
2023-05-22T00:48:12.406Z,10.80
2023-05-22T00:50:40.631Z,10.50
2023-05-22T00:53:08.666Z,10.87
2023-05-22T00:55:36.511Z,10.60
2023-05-22T00:58:10.893Z,11.53
2023-05-22T01:00:39.974Z,10.03
2023-05-22T01:03:09.762Z,10.20
2023-05-22T01:05:41.220Z,10.20
2023-05-22T01:08:12.037Z,10.20
2023-05-22T01:10:43.445Z,9.90
2023-05-22T01:13:21.840Z,10.40
2023-05-22T01:16:03.632Z,10.83
2023-05-22T01:18:38.817Z,10.80
2023-05-22T01:21:19.299Z,9.90
2023-05-22T01:24:06.677Z,11.63
2023-05-22T01:26:54.927Z,10.50
2023-05-22T01:29:44.377Z,10.70
2023-05-22T01:32:14.819Z,10.60
2023-05-22T01:34:48.599Z,11.40
2023-05-22T01:37:16.498Z,10.10
2023-05-22T01:39:53.552Z,10.60
2023-05-22T01:42:23.807Z,10.77
2023-05-22T01:44:51.969Z,10.57
2023-05-22T01:47:27.694Z,10.40
2023-05-22T01:49:57.437Z,11.80
2023-05-22T01:52:30.305Z,12.10
2023-05-22T01:55:07.620Z,10.63
2023-05-22T01:57:39.824Z,10.60
2023-05-22T02:00:11.285Z,10.47
2023-05-22T02:02:43.953Z,10.93
2023-05-22T02:05:15.565Z,10.20
2023-05-22T02:07:44.200Z,11.20
2023-05-22T02:10:13.150Z,10.40
2023-05-22T02:12:41.923Z,11.40
2023-05-22T02:15:13.776Z,11.63
2023-05-22T02:17:44.381Z,9.73
2023-05-22T02:20:16.279Z,11.10
2023-05-22T02:22:47.050Z,11.87
2023-05-22T02:25:17.783Z,9.50
2023-05-22T02:27:51.893Z,11.27
2023-05-22T02:30:21.366Z,11.03
2023-05-22T02:32:52.205Z,10.93
2023-05-22T02:35:21.882Z,11.10
2023-05-22T02:37:49.684Z,11.23
2023-05-22T02:40:23.626Z,11.77
2023-05-22T02:42:52.566Z,10.30
2023-05-22T02:45:20.456Z,10.87
2023-05-22T02:47:48.577Z,12.20
2023-05-22T02:50:19.251Z,11.00
2023-05-22T02:52:52.959Z,11.23
2023-05-22T02:55:21.027Z,10.40
2023-05-22T02:57:51.967Z,11.13
2023-05-22T03:00:21.954Z,10.10
2023-05-22T03:02:50.203Z,10.33
2023-05-22T03:05:21.680Z,10.07
2023-05-22T03:07:53.442Z,11.20
2023-05-22T03:10:23.641Z,11.70
2023-05-22T03:12:58.991Z,9.97
2023-05-22T03:15:33.218Z,10.87
2023-05-22T03:18:05.643Z,10.67
2023-05-22T03:20:35.283Z,10.63
2023-05-22T03:23:03.667Z,10.50
2023-05-22T03:25:38.078Z,10.20
2023-05-22T03:28:10.044Z,10.73
2023-05-22T03:30:38.314Z,9.90
2023-05-22T03:33:06.297Z,10.50
2023-05-22T03:35:36.698Z,11.80
2023-05-22T03:38:04.549Z,10.67
2023-05-22T03:40:32.305Z,10.00
2023-05-22T03:43:02.185Z,11.13
2023-05-22T03:45:32.776Z,11.47
2023-05-22T03:48:03.364Z,10.87
2023-05-22T03:50:35.289Z,11.17
2023-05-22T03:53:05.996Z,10.47
2023-05-22T03:55:35.452Z,10.30
2023-05-22T03:58:07.136Z,10.97
2023-05-22T04:00:38.958Z,11.97
2023-05-22T04:03:07.319Z,11.40
2023-05-22T04:05:39.824Z,10.43
2023-05-22T04:08:08.946Z,11.17
2023-05-22T04:10:42.559Z,11.30
2023-05-22T04:13:11.708Z,11.93
2023-05-22T04:15:41.758Z,13.70
2023-05-22T04:18:11.641Z,11.23
2023-05-22T04:20:43.091Z,12.10
2023-05-22T04:23:13.333Z,12.80
2023-05-22T04:25:44.056Z,11.83
2023-05-22T04:28:13.057Z,12.80
2023-05-22T04:30:41.243Z,10.53
2023-05-22T04:33:12.828Z,12.13
2023-05-22T04:35:42.386Z,11.60
2023-05-22T04:38:10.568Z,11.57
2023-05-22T04:40:39.992Z,11.57
2023-05-22T04:43:13.030Z,11.30
2023-05-22T04:45:42.530Z,11.10
2023-05-22T04:48:12.669Z,10.27
2023-05-22T04:50:41.032Z,11.23
2023-05-22T04:53:15.374Z,11.13
2023-05-22T04:55:46.100Z,10.60
2023-05-22T04:58:14.851Z,11.80
2023-05-22T05:00:44.562Z,10.73
2023-05-22T05:03:15.859Z,10.87
2023-05-22T05:05:47.784Z,10.63
2023-05-22T05:08:18.340Z,10.77
2023-05-22T05:10:48.068Z,11.60
2023-05-22T05:13:22.120Z,11.13
2023-05-22T05:15:50.386Z,11.73
2023-05-22T05:18:19.727Z,11.67
2023-05-22T05:20:48.935Z,11.90
2023-05-22T05:23:16.666Z,12.07
2023-05-22T05:25:56.220Z,10.60
2023-05-22T05:28:24.075Z,10.67
2023-05-22T05:30:54.406Z,12.60
2023-05-22T05:33:22.247Z,11.97
2023-05-22T05:35:52.704Z,12.30
2023-05-22T05:38:20.568Z,11.80
2023-05-22T05:40:50.847Z,11.73
2023-05-22T05:43:19.389Z,11.87
2023-05-22T05:45:47.590Z,11.33
2023-05-22T05:48:15.815Z,10.30
2023-05-22T05:50:44.049Z,11.03
2023-05-22T05:53:14.851Z,12.17
2023-05-22T05:55:42.777Z,11.30
2023-05-22T05:58:12.067Z,11.60
2023-05-22T06:00:42.450Z,11.90
2023-05-22T06:03:13.630Z,11.73
2023-05-22T06:05:41.530Z,11.27
2023-05-22T06:08:09.647Z,11.80
2023-05-22T06:10:37.916Z,11.70
2023-05-22T06:13:06.384Z,10.93
2023-05-22T06:15:36.682Z,11.07
2023-05-22T06:18:05.494Z,12.30
2023-05-22T06:20:44.844Z,11.53
2023-05-22T06:23:12.743Z,12.33
2023-05-22T06:25:40.903Z,10.43
2023-05-22T06:28:11.704Z,12.23
2023-05-22T06:30:43.805Z,11.23
2023-05-22T06:33:16.032Z,11.37
2023-05-22T06:35:44.186Z,10.83
2023-05-22T06:38:12.267Z,10.90
2023-05-22T06:40:40.519Z,11.80
2023-05-22T06:43:08.584Z,11.43
2023-05-22T06:45:37.709Z,11.53
2023-05-22T06:48:09.522Z,13.53
2023-05-22T06:50:40.128Z,10.60
2023-05-22T06:53:15.746Z,11.80
2023-05-22T06:55:53.550Z,11.77
2023-05-22T06:58:22.871Z,10.37
2023-05-22T07:00:50.879Z,11.33
2023-05-22T07:03:20.377Z,11.73
2023-05-22T07:05:49.485Z,10.70
2023-05-22T07:08:18.178Z,11.43
2023-05-22T07:10:46.733Z,11.10
2023-05-22T07:13:14.781Z,11.00
2023-05-22T07:15:46.386Z,12.93
2023-05-22T07:18:15.283Z,12.53
2023-05-22T07:20:47.298Z,12.53
2023-05-22T07:23:20.103Z,10.30
2023-05-22T07:25:50.930Z,10.63
2023-05-22T07:28:19.613Z,12.30
2023-05-22T07:30:47.501Z,11.70
2023-05-22T07:33:15.398Z,12.30
2023-05-22T07:35:52.132Z,12.90
2023-05-22T07:38:21.399Z,13.30
2023-05-22T07:40:54.864Z,12.10
2023-05-22T07:43:26.318Z,12.43
2023-05-22T07:45:57.054Z,11.37
2023-05-22T07:48:27.991Z,11.23
2023-05-22T07:51:00.930Z,10.97
2023-05-22T07:53:29.179Z,12.30
2023-05-22T07:55:57.324Z,10.87
2023-05-22T07:58:28.364Z,11.00
2023-05-22T08:00:56.924Z,12.03
2023-05-22T08:03:24.990Z,11.00
2023-05-22T08:05:55.304Z,10.60
2023-05-22T08:08:25.603Z,11.00
2023-05-22T08:13:30.631Z,11.50
2023-05-22T08:16:00.671Z,11.07
2023-05-22T08:18:30.024Z,11.80
2023-05-22T08:21:05.084Z,11.30
2023-05-22T08:23:40.601Z,10.90
2023-05-22T08:26:11.871Z,10.97
2023-05-22T08:28:44.641Z,10.73
2023-05-22T08:31:15.699Z,11.30
2023-05-22T08:33:45.965Z,12.13
2023-05-22T08:36:18.652Z,11.87
2023-05-22T08:38:49.165Z,11.80
2023-05-22T08:41:17.833Z,11.80
2023-05-22T08:43:45.969Z,12.27
2023-05-22T08:46:16.376Z,11.03
2023-05-22T08:48:45.166Z,11.60
2023-05-22T08:51:15.633Z,10.73
2023-05-22T08:53:44.507Z,12.13
2023-05-22T08:56:16.618Z,11.40
2023-05-22T08:58:52.262Z,12.13
2023-05-22T09:01:20.249Z,12.30
2023-05-22T09:03:51.269Z,11.50
2023-05-22T09:06:19.456Z,11.40
2023-05-22T09:08:51.395Z,11.13
2023-05-22T09:11:23.384Z,11.87
2023-05-22T09:13:52.122Z,12.30
2023-05-22T09:16:21.509Z,10.70
2023-05-22T09:18:55.485Z,9.87
2023-05-22T09:24:01.117Z,12.13
2023-05-22T09:26:33.724Z,11.03
2023-05-22T09:29:03.945Z,10.73
2023-05-22T09:31:32.151Z,11.07
2023-05-22T09:34:02.882Z,10.40
2023-05-22T09:36:34.215Z,10.20
2023-05-22T09:39:02.443Z,11.30
2023-05-22T09:41:36.254Z,10.80
2023-05-22T09:44:09.268Z,10.13
2023-05-22T09:46:42.729Z,10.70
2023-05-22T09:49:13.337Z,11.00
2023-05-22T09:51:45.858Z,10.17
2023-05-22T09:54:21.238Z,9.70
2023-05-22T09:56:52.332Z,10.80
2023-05-22T09:59:23.686Z,10.17
2023-05-22T10:01:51.931Z,10.50
2023-05-22T10:04:20.469Z,10.35
2023-05-22T10:06:54.176Z,10.68
2023-05-22T10:09:25.600Z,10.63
2023-05-22T10:11:59.209Z,10.40
2023-05-22T10:14:30.925Z,10.03
2023-05-22T10:17:03.073Z,9.83
2023-05-22T10:19:34.603Z,11.40
2023-05-22T10:22:03.624Z,10.27
2023-05-22T10:24:32.049Z,10.02
2023-05-22T10:27:01.299Z,10.87
2023-05-22T10:29:35.387Z,10.82
2023-05-22T10:32:08.598Z,10.15
2023-05-22T10:34:45.192Z,10.43
2023-05-22T10:37:23.568Z,10.10
2023-05-22T10:40:00.775Z,10.38
2023-05-22T10:42:35.012Z,11.68
2023-05-22T10:45:03.034Z,10.68
2023-05-22T10:47:30.943Z,11.02
2023-05-22T10:50:07.710Z,10.45
2023-05-22T10:52:40.257Z,11.23
2023-05-22T10:55:09.749Z,10.50
2023-05-22T10:57:40.722Z,10.65
2023-05-22T11:00:14.290Z,10.35
2023-05-22T11:02:50.174Z,10.25
2023-05-22T11:05:42.527Z,10.40
2023-05-22T11:08:31.210Z,9.75
2023-05-22T11:11:04.381Z,10.15
2023-05-22T11:13:34.472Z,9.70
2023-05-22T11:16:06.046Z,10.05
2023-05-22T11:18:40.272Z,10.45
2023-05-22T11:21:11.419Z,10.27
2023-05-22T11:23:39.791Z,10.77
2023-05-22T11:26:27.858Z,10.60
2023-05-22T11:28:59.907Z,9.13
2023-05-22T11:31:28.525Z,10.80
2023-05-22T11:33:59.449Z,10.00
2023-05-22T11:36:29.595Z,9.52
2023-05-22T11:38:59.142Z,10.18
2023-05-22T11:41:34.421Z,10.15
2023-05-22T11:44:03.765Z,10.48
2023-05-22T11:46:31.700Z,9.95
2023-05-22T11:49:00.243Z,10.68
2023-05-22T11:51:29.056Z,10.48
2023-05-22T11:54:01.404Z,9.10
2023-05-22T11:56:35.958Z,10.40
2023-05-22T11:59:05.513Z,10.27
2023-05-22T12:01:37.560Z,10.25
2023-05-22T12:04:08.709Z,9.70
2023-05-22T12:06:36.676Z,9.95
2023-05-22T12:09:07.321Z,11.38
2023-05-22T12:11:36.393Z,10.35
2023-05-22T12:14:06.016Z,10.63
2023-05-22T12:16:36.311Z,10.85
2023-05-22T12:19:11.170Z,9.85
2023-05-22T12:21:41.943Z,10.20
2023-05-22T12:24:12.703Z,10.43
2023-05-22T12:26:42.661Z,9.57
2023-05-22T12:29:13.729Z,9.63
2023-05-22T12:31:41.911Z,10.98
2023-05-22T12:34:10.119Z,9.85
2023-05-22T12:36:43.279Z,11.52
2023-05-22T12:39:12.482Z,12.75
2023-05-22T12:41:40.737Z,10.95
2023-05-22T12:44:09.115Z,9.98
2023-05-22T12:46:39.623Z,9.98
2023-05-22T12:49:17.495Z,9.55
2023-05-22T12:51:45.417Z,10.32
2023-05-22T12:54:19.658Z,10.07
2023-05-22T12:56:49.773Z,9.57
2023-05-22T12:59:19.484Z,9.82
2023-05-22T13:01:51.645Z,9.88
2023-05-22T13:04:20.162Z,9.80
2023-05-22T13:06:51.308Z,10.23
2023-05-22T13:09:22.080Z,10.02
2023-05-22T13:11:53.039Z,9.05
2023-05-22T13:14:23.112Z,10.40
2023-05-22T13:16:52.854Z,10.10
2023-05-22T13:19:29.962Z,9.50
2023-05-22T13:22:05.286Z,9.52
2023-05-22T13:24:42.333Z,10.02
2023-05-22T13:27:13.526Z,11.48
2023-05-22T13:29:43.974Z,10.68
2023-05-22T13:32:17.257Z,9.93
2023-05-22T13:34:45.611Z,10.40
2023-05-22T13:37:14.284Z,10.23
2023-05-22T13:39:45.379Z,9.73
2023-05-22T13:42:15.685Z,9.70
2023-05-22T13:44:46.548Z,10.50
2023-05-22T13:47:19.127Z,10.65
2023-05-22T13:49:50.127Z,9.88
2023-05-22T13:52:18.065Z,9.55
2023-05-22T13:54:45.888Z,9.65
2023-05-22T13:57:17.591Z,10.20
2023-05-22T13:59:47.585Z,8.63
2023-05-22T14:02:22.107Z,9.85
2023-05-22T14:04:52.511Z,9.23
2023-05-22T14:07:31.782Z,10.95
2023-05-22T14:10:01.210Z,10.25
2023-05-22T14:12:30.518Z,9.32
2023-05-22T14:15:02.315Z,9.00
2023-05-22T14:17:31.509Z,10.60
2023-05-22T14:19:59.868Z,9.35
2023-05-22T14:22:27.909Z,9.73
2023-05-22T14:24:55.633Z,9.63
2023-05-22T14:27:26.133Z,9.40
2023-05-22T14:29:59.518Z,10.40
2023-05-22T14:32:27.712Z,9.90
2023-05-22T14:35:11.525Z,9.20
2023-05-22T14:37:39.465Z,9.57
2023-05-22T14:40:08.867Z,9.98
2023-05-22T14:42:37.074Z,9.85
2023-05-22T14:45:10.436Z,10.35
2023-05-22T14:47:43.897Z,9.00
2023-05-22T14:50:19.761Z,8.70
2023-05-22T14:52:49.145Z,7.28
2023-05-22T14:55:17.867Z,7.32
2023-05-22T14:57:46.259Z,8.15
2023-05-22T15:00:15.240Z,8.48
2023-05-22T15:02:43.017Z,8.48
2023-05-22T15:05:11.408Z,8.82
2023-05-22T15:07:44.708Z,8.00
2023-05-22T15:10:24.340Z,7.57
2023-05-22T15:12:52.521Z,8.10
2023-05-22T15:15:21.686Z,6.53
2023-05-22T15:17:52.477Z,6.70
2023-05-22T15:20:22.663Z,7.63
2023-05-22T15:22:51.930Z,7.43
2023-05-22T15:25:25.113Z,7.15
2023-05-22T15:27:53.057Z,7.53
2023-05-22T15:30:22.184Z,8.02
2023-05-22T15:32:52.552Z,9.48
2023-05-22T15:35:20.473Z,7.25
2023-05-22T15:37:52.561Z,8.20
2023-05-22T15:40:22.614Z,8.35
2023-05-22T15:42:50.748Z,8.25
2023-05-22T15:45:23.549Z,8.35
2023-05-22T15:47:53.422Z,7.90
2023-05-22T15:50:24.394Z,8.15
2023-05-22T15:52:59.875Z,9.05
2023-05-22T15:55:27.937Z,9.00
2023-05-22T15:57:55.784Z,8.02
2023-05-22T16:00:30.280Z,8.05
2023-05-22T16:02:58.387Z,7.60
2023-05-22T16:05:26.246Z,7.93
2023-05-22T16:07:55.516Z,8.70
2023-05-22T16:10:23.337Z,7.20
2023-05-22T16:12:53.270Z,7.90
2023-05-22T16:15:26.263Z,8.75
2023-05-22T16:17:58.483Z,7.85
2023-05-22T16:20:28.243Z,7.40
2023-05-22T16:22:58.733Z,6.97
2023-05-22T16:25:26.672Z,7.85
2023-05-22T16:27:54.453Z,7.63
2023-05-22T16:30:22.486Z,7.28
2023-05-22T16:32:50.447Z,7.93
2023-05-22T16:35:23.183Z,7.57
2023-05-22T16:37:52.203Z,7.80
2023-05-22T16:40:25.418Z,7.68
2023-05-22T16:42:53.223Z,7.47
2023-05-22T16:45:21.135Z,7.35
2023-05-22T16:47:51.876Z,7.90
2023-05-22T16:50:23.765Z,8.48
2023-05-22T16:52:51.518Z,8.73
2023-05-22T16:55:19.498Z,7.50
2023-05-22T16:57:48.776Z,8.23
2023-05-22T17:00:17.552Z,8.13
2023-05-22T17:02:45.602Z,7.40
2023-05-22T17:05:13.534Z,8.47
2023-05-22T17:07:49.669Z,8.80
2023-05-22T17:10:19.845Z,7.30
2023-05-22T17:12:53.258Z,7.73
2023-05-22T17:15:23.526Z,7.50
2023-05-22T17:17:54.417Z,7.00
2023-05-22T17:20:26.453Z,8.50
2023-05-22T17:22:56.037Z,8.70
2023-05-22T17:25:23.992Z,10.67
2023-05-22T17:27:55.606Z,8.90
2023-05-22T17:30:27.645Z,9.57
2023-05-22T17:32:57.015Z,8.60
2023-05-22T17:35:32.717Z,7.33
2023-05-22T17:38:03.006Z,8.73
2023-05-22T17:40:44.133Z,7.40
2023-05-22T17:43:14.488Z,7.00
2023-05-22T17:45:50.154Z,7.30
2023-05-22T17:48:21.621Z,7.53
2023-05-22T17:50:50.066Z,7.57
2023-05-22T17:53:19.814Z,6.90
2023-05-22T17:55:49.469Z,6.83
2023-05-22T17:58:19.585Z,7.20
2023-05-22T18:00:49.181Z,6.10
2023-05-22T18:03:20.214Z,6.13
2023-05-22T18:05:51.188Z,5.53
2023-05-22T18:08:23.070Z,5.57
2023-05-22T18:10:55.760Z,4.77
2023-05-22T18:13:25.121Z,5.77
2023-05-22T18:15:53.125Z,6.27
2023-05-22T18:18:22.368Z,5.50
2023-05-22T18:20:50.342Z,5.90
2023-05-22T18:23:23.461Z,5.90
2023-05-22T18:26:05.401Z,6.07
2023-05-22T18:28:37.598Z,5.80
2023-05-22T18:31:08.465Z,6.27
2023-05-22T18:33:39.820Z,6.30
2023-05-22T18:36:07.876Z,5.90
2023-05-22T18:38:35.649Z,5.80
2023-05-22T18:41:03.587Z,6.00
2023-05-22T18:43:31.466Z,6.07
2023-05-22T18:46:00.733Z,5.30
2023-05-22T18:48:31.843Z,7.67
2023-05-22T18:51:07.710Z,6.67
2023-05-22T18:53:39.344Z,7.47
2023-05-22T18:56:07.107Z,6.63
2023-05-22T18:58:37.704Z,6.23
2023-05-22T19:01:06.894Z,7.20
2023-05-22T19:03:40.489Z,7.20
2023-05-22T19:06:08.309Z,7.07
2023-05-22T19:08:50.890Z,6.87
2023-05-22T19:11:22.112Z,7.37
2023-05-22T19:13:52.860Z,7.47
2023-05-22T19:16:25.919Z,7.40
2023-05-22T19:18:56.543Z,6.80
2023-05-22T19:21:27.436Z,7.23
2023-05-22T19:23:55.264Z,6.23
2023-05-22T19:26:23.174Z,6.13
2023-05-22T19:28:51.843Z,6.87
2023-05-22T19:31:26.929Z,6.40
2023-05-22T19:33:54.799Z,6.43
2023-05-22T19:36:24.805Z,6.37
2023-05-22T19:38:55.081Z,7.30
2023-05-22T19:41:24.821Z,6.57
2023-05-22T19:43:54.305Z,5.80
2023-05-22T19:46:29.373Z,7.20
2023-05-22T19:49:00.404Z,7.63
2023-05-22T19:51:31.118Z,8.60
2023-05-22T19:54:05.060Z,7.77
2023-05-22T19:56:34.931Z,8.13
2023-05-22T19:59:03.172Z,8.40
2023-05-22T20:01:36.495Z,8.00
2023-05-22T20:04:09.878Z,7.33
2023-05-22T20:06:37.747Z,7.73
2023-05-22T20:09:06.458Z,8.13
2023-05-22T20:11:38.608Z,8.23
2023-05-22T20:14:10.124Z,7.53
2023-05-22T20:16:39.476Z,7.70
2023-05-22T20:19:07.488Z,7.70
2023-05-22T20:21:37.851Z,7.60
2023-05-22T20:24:12.041Z,7.93
2023-05-22T20:26:44.601Z,8.00
2023-05-22T20:29:12.439Z,8.33
2023-05-22T20:31:49.751Z,7.47
2023-05-22T20:34:17.604Z,7.13
2023-05-22T20:36:46.536Z,7.57
2023-05-22T20:39:17.449Z,8.30
2023-05-22T20:41:53.176Z,7.13
2023-05-22T20:44:24.713Z,7.60
2023-05-22T20:46:54.303Z,7.57
2023-05-22T20:49:29.735Z,8.17
2023-05-22T20:52:03.275Z,8.83
2023-05-22T20:54:34.629Z,8.60
2023-05-22T20:57:02.807Z,9.00
2023-05-22T20:59:33.451Z,8.93
2023-05-22T21:02:02.584Z,8.23
2023-05-22T21:04:30.385Z,8.47
2023-05-22T21:06:58.167Z,8.30
2023-05-22T21:09:28.998Z,9.80
2023-05-22T21:12:01.604Z,8.60
2023-05-22T21:14:41.831Z,9.37
2023-05-22T21:17:13.440Z,9.13
2023-05-22T21:19:43.480Z,8.83
2023-05-22T21:22:11.309Z,9.27
2023-05-22T21:24:44.401Z,9.67
2023-05-22T21:27:15.123Z,9.63
2023-05-22T21:29:42.960Z,10.13
2023-05-22T21:32:15.214Z,9.50
2023-05-22T21:34:43.036Z,9.13
2023-05-22T21:37:11.463Z,10.07
2023-05-22T21:39:42.287Z,9.20
2023-05-22T21:42:10.592Z,9.40
2023-05-22T21:44:39.074Z,10.30
2023-05-22T21:47:07.446Z,8.80
2023-05-22T21:49:41.445Z,10.23
2023-05-22T21:52:09.398Z,9.23
2023-05-22T21:54:37.590Z,9.63
2023-05-22T21:57:06.171Z,9.90
2023-05-22T21:59:34.325Z,9.90
2023-05-22T22:02:02.478Z,9.20
2023-05-22T22:04:30.328Z,9.07
2023-05-22T22:06:59.411Z,10.20
2023-05-22T22:09:27.530Z,7.97
2023-05-22T22:12:00.318Z,8.00
2023-05-22T22:14:32.196Z,8.10
2023-05-22T22:17:02.528Z,7.87
2023-05-22T22:19:30.768Z,8.40
2023-05-22T22:22:01.333Z,7.63
2023-05-22T22:24:29.237Z,6.60
2023-05-22T22:26:57.754Z,8.20
2023-05-22T22:29:28.071Z,7.90
2023-05-22T22:31:55.863Z,8.93
2023-05-22T22:34:23.715Z,8.80
2023-05-22T22:36:54.790Z,8.70
2023-05-22T22:39:35.612Z,10.40
2023-05-22T22:42:05.299Z,11.30
2023-05-22T22:44:35.360Z,9.60
2023-05-22T22:47:07.299Z,10.50
2023-05-22T22:49:37.275Z,11.53
2023-05-22T22:52:05.619Z,11.50
2023-05-22T22:54:34.992Z,11.77
2023-05-22T22:57:04.195Z,12.63
2023-05-22T22:59:35.580Z,11.63
2023-05-22T23:02:04.914Z,13.57
2023-05-22T23:04:32.751Z,13.67
2023-05-22T23:07:05.583Z,13.90
2023-05-22T23:09:36.887Z,16.50
2023-05-22T23:12:07.424Z,14.83
2023-05-22T23:14:37.700Z,16.73
2023-05-22T23:17:07.775Z,16.10
2023-05-22T23:19:35.872Z,16.20
2023-05-22T23:22:03.736Z,15.50
2023-05-22T23:24:33.970Z,15.50
2023-05-22T23:27:03.199Z,14.90
2023-05-22T23:29:31.155Z,17.50
2023-05-22T23:32:00.056Z,16.90
2023-05-22T23:34:30.178Z,17.93
2023-05-22T23:37:01.201Z,17.00
2023-05-22T23:39:29.111Z,18.33
2023-05-22T23:42:01.223Z,18.40
2023-05-22T23:44:31.038Z,20.07
2023-05-22T23:46:59.376Z,20.40
2023-05-22T23:49:33.645Z,20.33
2023-05-22T23:52:01.642Z,21.23
2023-05-22T23:54:32.493Z,21.03
2023-05-22T23:57:02.269Z,23.27
2023-05-22T23:59:34.825Z,23.50
